createdAt,value
2019-04-05T00:02:53.272Z,4.87
2019-04-05T00:06:57.294Z,5.13
2019-04-05T00:11:01.334Z,4.80
2019-04-05T00:15:15.276Z,4.27
2019-04-05T00:19:11.343Z,5.20
2019-04-05T00:23:15.367Z,5.10
2019-04-05T00:27:19.455Z,5.63
2019-04-05T00:31:24.546Z,7.47
2019-04-05T00:35:28.527Z,7.07
2019-04-05T00:39:32.496Z,6.57
2019-04-05T00:43:36.568Z,5.60
2019-04-05T00:47:40.722Z,5.53
2019-04-05T00:51:44.916Z,5.40
2019-04-05T00:55:48.971Z,5.43
2019-04-05T00:59:52.902Z,6.77
2019-04-05T01:03:56.881Z,6.00
2019-04-05T01:08:01.219Z,5.00
2019-04-05T01:12:06.702Z,7.03
2019-04-05T01:16:11.091Z,6.33
2019-04-05T01:20:15.148Z,5.67
2019-04-05T01:24:19.938Z,4.93
2019-04-05T01:28:24.212Z,5.90
2019-04-05T01:32:28.326Z,6.60
2019-04-05T01:36:51.487Z,5.10
2019-04-05T01:40:56.866Z,5.90
2019-04-05T01:45:01.015Z,6.97
2019-04-05T01:49:05.050Z,4.90
2019-04-05T01:53:09.076Z,6.03
2019-04-05T01:57:13.259Z,6.00
2019-04-05T02:01:17.322Z,5.17
2019-04-05T02:05:22.889Z,5.37
2019-04-05T02:09:27.173Z,6.20
2019-04-05T02:13:31.177Z,9.03
2019-04-05T02:17:36.093Z,8.27
2019-04-05T02:21:40.267Z,10.43
2019-04-05T02:25:44.266Z,9.23
2019-04-05T02:29:48.257Z,8.57
2019-04-05T02:33:52.395Z,8.73
2019-04-05T02:37:56.688Z,7.70
2019-04-05T02:42:00.747Z,8.60
2019-04-05T02:46:04.990Z,10.23
2019-04-05T02:50:09.611Z,8.87
2019-04-05T02:54:14.263Z,8.63
2019-04-05T02:58:18.771Z,8.07
2019-04-05T03:02:22.808Z,10.33
2019-04-05T03:06:27.138Z,8.87
2019-04-05T03:10:50.524Z,9.73
2019-04-05T03:14:55.272Z,9.33
2019-04-05T03:19:03.627Z,8.27
2019-04-05T03:23:07.991Z,7.63
2019-04-05T03:27:15.231Z,10.30
2019-04-05T03:31:24.566Z,8.60
2019-04-05T03:35:25.336Z,6.23
2019-04-05T03:39:30.235Z,7.20
2019-04-05T03:43:34.653Z,8.10
2019-04-05T03:47:38.555Z,6.30
2019-04-05T03:51:42.762Z,6.83
2019-04-05T03:55:46.840Z,6.23
2019-04-05T04:04:14.781Z,8.80
2019-04-05T04:08:21.693Z,8.50
2019-04-05T04:12:24.822Z,9.57
2019-04-05T04:16:29.006Z,7.43
2019-04-05T04:20:36.902Z,9.03
2019-04-05T04:24:40.980Z,8.03
2019-04-05T04:28:45.211Z,8.13
2019-04-05T04:32:49.375Z,9.30
2019-04-05T04:36:53.491Z,8.47
2019-04-05T04:40:57.810Z,9.10
2019-04-05T04:45:12.050Z,9.83
2019-04-05T04:49:08.237Z,10.93
2019-04-05T04:53:12.478Z,7.20
2019-04-05T04:57:16.683Z,8.53
2019-04-05T05:01:20.753Z,8.67
2019-04-05T05:05:25.865Z,9.13
2019-04-05T05:09:30.066Z,7.80
2019-04-05T05:13:34.134Z,8.60
2019-04-05T05:17:39.029Z,7.13
2019-04-05T05:21:43.445Z,9.17
2019-04-05T05:25:47.656Z,9.97
2019-04-05T05:29:52.195Z,9.77
2019-04-05T05:33:56.274Z,10.13
2019-04-05T05:38:00.440Z,9.43
2019-04-05T05:42:04.719Z,8.43
2019-04-05T05:46:08.798Z,10.47
2019-04-05T05:50:12.973Z,13.70
2019-04-05T05:54:17.046Z,16.90
2019-04-05T05:58:21.070Z,20.37
2019-04-05T06:02:25.122Z,18.20
2019-04-05T06:06:29.207Z,13.17
2019-04-05T06:10:33.198Z,10.33
2019-04-05T06:14:38.119Z,9.93
2019-04-05T06:18:42.245Z,10.17
2019-04-05T06:22:47.659Z,11.80
2019-04-05T06:26:51.919Z,9.13
2019-04-05T06:30:55.963Z,10.00
2019-04-05T06:35:00.050Z,8.57
2019-04-05T06:39:06.051Z,9.27
2019-04-05T06:43:10.019Z,7.70
2019-04-05T06:47:14.042Z,8.77
2019-04-05T06:51:18.071Z,8.87
2019-04-05T06:55:22.175Z,9.50
2019-04-05T06:59:26.607Z,9.13
2019-04-05T07:03:30.673Z,10.43
2019-04-05T07:07:34.742Z,8.73
2019-04-05T07:11:39.019Z,8.43
2019-04-05T07:15:43.823Z,11.83
2019-04-05T07:19:48.015Z,12.57
2019-04-05T07:23:52.221Z,10.17
2019-04-05T07:27:56.361Z,9.80
2019-04-05T07:32:00.414Z,10.93
2019-04-05T07:36:04.391Z,11.23
2019-04-05T07:40:08.457Z,12.30
2019-04-05T07:44:13.823Z,10.03
2019-04-05T07:48:17.664Z,12.03
2019-04-05T07:52:21.739Z,11.17
2019-04-05T07:56:25.827Z,10.83
2019-04-05T08:00:40.735Z,11.57
2019-04-05T08:04:44.983Z,10.33
2019-04-05T08:09:08.289Z,8.73
2019-04-05T08:13:13.217Z,7.80
2019-04-05T08:17:17.257Z,8.63
2019-04-05T08:21:21.238Z,6.40
2019-04-05T08:25:25.358Z,10.80
2019-04-05T08:29:29.358Z,7.63
2019-04-05T08:33:36.206Z,7.47
2019-04-05T08:37:39.378Z,8.50
2019-04-05T08:41:43.557Z,7.77
2019-04-05T08:45:47.682Z,7.63
2019-04-05T08:49:51.668Z,9.17
2019-04-05T08:53:55.900Z,9.00
2019-04-05T08:58:00.105Z,8.77
2019-04-05T09:02:05.371Z,7.23
2019-04-05T09:06:09.443Z,7.00
2019-04-05T09:10:13.687Z,9.40
2019-04-05T09:14:20.721Z,7.10
2019-04-05T09:18:23.558Z,10.43
2019-04-05T09:22:27.658Z,6.77
2019-04-05T09:26:32.145Z,5.60
2019-04-05T09:30:36.139Z,6.10
2019-04-05T09:34:40.105Z,7.23
2019-04-05T09:38:44.227Z,5.23
2019-04-05T09:42:48.260Z,4.90
2019-04-05T09:46:52.348Z,5.43
2019-04-05T09:50:56.521Z,5.20
2019-04-05T09:55:00.500Z,6.50
2019-04-05T09:59:04.498Z,5.27
2019-04-05T10:03:09.552Z,7.70
2019-04-05T10:07:13.731Z,7.87
2019-04-05T10:11:17.874Z,5.80
2019-04-05T10:15:22.106Z,7.73
2019-04-05T10:19:26.377Z,7.20
2019-04-05T10:23:33.066Z,13.13
2019-04-05T10:27:37.243Z,8.30
2019-04-05T10:31:41.201Z,7.40
2019-04-05T10:35:45.515Z,6.63
2019-04-05T10:39:49.654Z,7.90
2019-04-05T10:43:53.666Z,8.00
2019-04-05T10:47:57.707Z,4.83
2019-04-05T10:52:01.756Z,6.10
2019-04-05T10:56:07.515Z,6.73
2019-04-05T11:00:12.749Z,5.23
2019-04-05T11:04:16.939Z,4.30
2019-04-05T11:08:21.230Z,5.23
2019-04-05T11:12:25.218Z,6.03
2019-04-05T11:16:29.329Z,5.43
2019-04-05T11:20:33.401Z,4.10
2019-04-05T11:24:37.668Z,5.70
2019-04-05T11:28:41.731Z,4.30
2019-04-05T11:32:46.091Z,6.33
2019-04-05T11:36:51.486Z,5.50
2019-04-05T11:40:56.114Z,6.57
2019-04-05T11:45:00.177Z,8.17
2019-04-05T11:49:04.473Z,6.80
2019-04-05T11:53:08.692Z,8.37
2019-04-05T11:57:12.738Z,8.63
2019-04-05T12:01:23.495Z,7.23
2019-04-05T12:05:29.053Z,6.93
2019-04-05T12:09:33.137Z,5.73
2019-04-05T12:13:37.122Z,6.33
2019-04-05T12:17:41.067Z,5.13
2019-04-05T12:21:46.282Z,7.50
2019-04-05T12:25:50.435Z,6.43
2019-04-05T12:29:54.507Z,4.93
2019-04-05T12:33:58.787Z,5.37
2019-04-05T12:38:06.948Z,6.57
2019-04-05T12:42:12.240Z,7.73
2019-04-05T12:46:16.366Z,7.00
2019-04-05T12:50:20.654Z,9.60
2019-04-05T12:54:24.710Z,12.60
2019-04-05T12:58:28.864Z,8.13
2019-04-05T13:02:34.021Z,10.90
2019-04-05T13:06:38.415Z,7.77
2019-04-05T13:10:42.466Z,11.03
2019-04-05T13:14:46.470Z,10.27
2019-04-05T13:18:50.461Z,9.17
2019-04-05T13:22:54.464Z,9.43
2019-04-05T13:26:58.418Z,9.30
2019-04-05T13:31:02.527Z,9.37
2019-04-05T13:35:07.834Z,10.27
2019-04-05T13:39:11.751Z,9.67
2019-04-05T13:43:18.332Z,9.23
2019-04-05T13:47:22.282Z,10.43
2019-04-05T13:51:28.583Z,10.43
2019-04-05T13:55:32.053Z,13.60
2019-04-05T13:59:36.224Z,10.97
2019-04-05T14:03:40.364Z,9.67
2019-04-05T14:07:44.640Z,9.07
2019-04-05T14:11:48.780Z,11.10
2019-04-05T14:15:52.909Z,10.43
2019-04-05T14:19:56.787Z,32.30
2019-04-05T14:24:00.767Z,12.57
2019-04-05T14:28:05.392Z,11.20
2019-04-05T14:32:20.476Z,11.07
2019-04-05T14:36:15.712Z,10.87
2019-04-05T14:40:19.966Z,10.07
2019-04-05T14:44:24.026Z,11.47
2019-04-05T14:48:31.706Z,12.17
2019-04-05T14:52:35.221Z,9.60
2019-04-05T14:56:39.218Z,9.67
2019-04-05T15:00:44.434Z,10.57
2019-04-05T15:04:49.471Z,10.43
2019-04-05T15:08:53.771Z,10.93
2019-04-05T15:13:00.108Z,10.20
2019-04-05T15:17:03.522Z,10.03
2019-04-05T15:21:07.707Z,19.17
2019-04-05T15:25:11.702Z,10.97
2019-04-05T15:29:15.824Z,11.07
2019-04-05T15:33:19.869Z,9.80
2019-04-05T15:37:24.005Z,11.87
2019-04-05T15:41:29.222Z,10.03
2019-04-05T15:45:33.296Z,12.80
2019-04-05T15:49:37.282Z,10.90
2019-04-05T15:53:41.346Z,9.80
2019-04-05T15:57:45.530Z,9.23
2019-04-05T16:01:49.563Z,11.47
2019-04-05T16:05:53.498Z,13.13
2019-04-05T16:09:57.650Z,12.80
2019-04-05T16:14:02.008Z,9.63
2019-04-05T16:18:07.133Z,9.73
2019-04-05T16:22:11.132Z,10.77
2019-04-05T16:26:15.171Z,11.23
2019-04-05T16:30:19.313Z,9.47
2019-04-05T16:34:23.403Z,9.07
2019-04-05T16:38:27.511Z,9.07
2019-04-05T16:42:31.717Z,13.47
2019-04-05T16:46:35.988Z,10.53
2019-04-05T16:50:42.324Z,9.60
2019-04-05T16:54:45.663Z,11.80
2019-04-05T16:58:49.817Z,10.57
2019-04-05T17:02:54.033Z,11.07
2019-04-05T17:06:58.353Z,11.20
2019-04-05T17:11:02.554Z,9.70
2019-04-05T17:15:06.995Z,9.17
2019-04-05T17:19:11.352Z,10.67
2019-04-05T17:23:15.594Z,11.23
2019-04-05T17:27:19.646Z,10.87
2019-04-05T17:31:23.610Z,10.77
2019-04-05T17:35:27.694Z,13.77
2019-04-05T17:39:31.939Z,10.13
2019-04-05T17:43:36.273Z,13.90
2019-04-05T17:47:40.340Z,7.93
2019-04-05T17:51:45.635Z,11.60
2019-04-05T17:55:49.617Z,12.97
2019-04-05T17:59:53.695Z,10.43
2019-04-05T18:03:57.832Z,13.67
2019-04-05T18:08:01.826Z,12.57
2019-04-05T18:12:06.094Z,11.13
2019-04-05T18:16:10.086Z,10.17
2019-04-05T18:20:14.398Z,10.37
2019-04-05T18:24:18.422Z,11.83
2019-04-05T18:28:22.561Z,12.43
2019-04-05T18:32:26.839Z,10.70
2019-04-05T18:36:30.927Z,11.90
2019-04-05T18:40:40.314Z,13.53
2019-04-05T18:44:40.677Z,11.93
2019-04-05T18:48:44.715Z,11.00
2019-04-05T18:52:48.821Z,13.03
2019-04-05T18:56:52.956Z,12.37
2019-04-05T19:00:57.142Z,11.70
2019-04-05T19:05:01.131Z,11.73
2019-04-05T19:09:06.715Z,9.47
2019-04-05T19:13:11.371Z,9.33
2019-04-05T19:17:23.808Z,11.40
2019-04-05T19:21:21.413Z,7.37
2019-04-05T19:25:25.366Z,9.97
2019-04-05T19:29:30.491Z,8.87
2019-04-05T19:49:57.794Z,13.00
2019-04-05T19:54:01.851Z,9.77
2019-04-05T19:58:06.225Z,10.30
2019-04-05T20:02:10.184Z,7.90
2019-04-05T20:06:14.348Z,6.03
2019-04-05T20:10:18.582Z,7.83
2019-04-05T20:14:23.078Z,6.37
2019-04-05T20:18:27.067Z,8.70
2019-04-05T20:22:32.872Z,6.10
2019-04-05T20:26:36.993Z,5.63
2019-04-05T20:30:41.006Z,5.03
2019-04-05T20:34:45.069Z,8.00
2019-04-05T20:38:49.241Z,7.77
2019-04-05T20:42:54.833Z,6.27
2019-04-05T20:46:58.921Z,5.57
2019-04-05T20:51:02.919Z,7.90
2019-04-05T20:55:07.601Z,7.07
2019-04-05T20:59:11.634Z,7.00
2019-04-05T21:03:15.739Z,6.20
2019-04-05T21:07:19.661Z,4.43
2019-04-05T21:11:23.798Z,7.00
2019-04-05T21:15:27.927Z,6.70
2019-04-05T21:19:31.956Z,5.93
2019-04-05T21:23:36.056Z,6.93
2019-04-05T21:27:40.137Z,5.13
2019-04-05T21:31:44.025Z,6.50
2019-04-05T21:35:48.063Z,6.47
2019-04-05T21:39:52.251Z,7.10
2019-04-05T21:43:56.683Z,7.03
2019-04-05T21:48:00.684Z,5.77
2019-04-05T21:52:04.999Z,5.37
2019-04-05T21:56:09.044Z,6.43
2019-04-05T22:00:16.119Z,7.90
2019-04-05T22:04:20.982Z,5.00
2019-04-05T22:08:26.021Z,4.97
2019-04-05T22:12:30.050Z,6.63
2019-04-05T22:16:34.370Z,9.73
2019-04-05T22:20:38.370Z,7.67
2019-04-05T22:24:42.482Z,7.30
2019-04-05T22:28:46.504Z,7.93
2019-04-05T22:32:51.485Z,9.63
2019-04-05T22:36:55.486Z,9.20
2019-04-05T22:40:59.454Z,7.27
2019-04-05T22:45:03.805Z,6.77
2019-04-05T22:49:07.780Z,8.53
2019-04-05T22:53:11.870Z,6.50
2019-04-05T22:57:15.969Z,8.50
2019-04-05T23:01:19.983Z,7.87
2019-04-05T23:05:24.126Z,7.73
2019-04-05T23:09:28.466Z,8.50
2019-04-05T23:13:32.799Z,7.43
2019-04-05T23:17:36.934Z,8.17
2019-04-05T23:21:40.980Z,9.27
2019-04-05T23:25:45.079Z,8.70
2019-04-05T23:29:49.247Z,8.97
2019-04-05T23:33:53.306Z,8.43
2019-04-05T23:37:57.301Z,8.67
2019-04-05T23:42:01.329Z,9.27
2019-04-05T23:46:05.494Z,7.87
2019-04-05T23:50:09.603Z,10.23
2019-04-05T23:54:13.622Z,8.90
2019-04-05T23:58:17.800Z,9.90
